createdAt,value
2019-05-17T00:02:17.493Z,1.50
2019-05-17T00:04:47.078Z,1.50
2019-05-17T00:07:16.831Z,1.40
2019-05-17T00:09:47.869Z,1.47
2019-05-17T00:12:17.770Z,1.63
2019-05-17T00:14:47.392Z,1.53
2019-05-17T00:17:17.334Z,1.40
2019-05-17T00:19:47.123Z,1.50
2019-05-17T00:22:16.920Z,1.47
2019-05-17T00:24:47.711Z,1.30
2019-05-17T00:27:17.496Z,1.57
2019-05-17T00:29:46.877Z,1.43
2019-05-17T00:32:17.073Z,1.30
2019-05-17T00:34:47.082Z,1.50
2019-05-17T00:37:17.334Z,1.57
2019-05-17T00:39:47.212Z,1.30
2019-05-17T00:42:17.211Z,1.60
2019-05-17T00:44:47.369Z,1.40
2019-05-17T00:47:17.181Z,1.53
2019-05-17T00:49:46.888Z,1.60
2019-05-17T00:52:16.805Z,1.80
2019-05-17T00:54:46.915Z,1.60
2019-05-17T00:57:16.651Z,1.57
2019-05-17T00:59:47.552Z,1.50
2019-05-17T01:02:17.082Z,1.60
2019-05-17T01:04:47.621Z,1.60
2019-05-17T01:07:17.700Z,1.30
2019-05-17T01:09:47.386Z,2.00
2019-05-17T01:12:16.691Z,1.70
2019-05-17T01:14:46.632Z,1.30
2019-05-17T01:17:16.622Z,1.70
2019-05-17T01:19:47.204Z,1.50
2019-05-17T01:22:16.987Z,1.80
2019-05-17T01:24:46.672Z,1.50
2019-05-17T01:27:17.222Z,1.77
2019-05-17T01:29:46.689Z,1.80
2019-05-17T01:32:17.186Z,1.47
2019-05-17T01:34:46.968Z,1.50
2019-05-17T01:37:17.369Z,1.70
2019-05-17T01:39:46.926Z,1.60
2019-05-17T01:42:17.208Z,1.90
2019-05-17T01:44:47.238Z,1.90
2019-05-17T01:47:16.743Z,1.67
2019-05-17T01:49:46.994Z,1.53
2019-05-17T01:52:16.884Z,1.70
2019-05-17T01:54:46.940Z,1.63
2019-05-17T01:57:16.967Z,1.70
2019-05-17T01:59:46.888Z,1.97
2019-05-17T02:02:18.749Z,1.80
2019-05-17T02:04:50.055Z,1.70
2019-05-17T02:07:19.357Z,2.00
2019-05-17T02:09:48.618Z,1.70
2019-05-17T02:12:18.414Z,1.93
2019-05-17T02:14:47.741Z,1.70
2019-05-17T02:17:17.467Z,1.90
2019-05-17T02:19:47.219Z,2.60
2019-05-17T02:22:16.827Z,2.10
2019-05-17T02:24:46.490Z,1.80
2019-05-17T02:27:16.136Z,1.97
2019-05-17T02:29:45.418Z,2.37
2019-05-17T02:32:14.748Z,2.13
2019-05-17T02:34:44.093Z,1.97
2019-05-17T02:37:13.763Z,1.70
2019-05-17T02:39:57.115Z,1.90
2019-05-17T02:42:14.542Z,1.97
2019-05-17T02:44:44.020Z,2.03
2019-05-17T02:47:13.477Z,2.00
2019-05-17T02:49:43.318Z,2.13
2019-05-17T02:52:12.861Z,1.77
2019-05-17T02:54:43.788Z,2.20
2019-05-17T02:57:14.188Z,2.13
2019-05-17T02:59:43.775Z,2.07
2019-05-17T03:02:13.094Z,1.70
2019-05-17T03:04:43.406Z,2.00
2019-05-17T03:07:13.775Z,1.90
2019-05-17T03:09:43.363Z,1.97
2019-05-17T03:12:13.120Z,1.97
2019-05-17T03:14:43.332Z,2.20
2019-05-17T03:17:14.152Z,1.80
2019-05-17T03:19:43.843Z,1.70
2019-05-17T03:22:13.438Z,2.23
2019-05-17T03:24:43.942Z,1.57
2019-05-17T03:27:13.955Z,1.83
2019-05-17T03:29:43.556Z,1.87
2019-05-17T03:32:17.139Z,1.90
2019-05-17T03:34:46.765Z,1.80
2019-05-17T03:37:16.693Z,1.80
2019-05-17T03:39:46.210Z,1.80
2019-05-17T03:42:15.700Z,1.90
2019-05-17T03:44:45.001Z,1.97
2019-05-17T03:47:14.321Z,2.00
2019-05-17T03:49:44.020Z,1.77
2019-05-17T03:52:13.771Z,2.10
2019-05-17T03:54:43.279Z,1.57
2019-05-17T03:57:13.514Z,1.90
2019-05-17T03:59:43.188Z,1.97
2019-05-17T04:02:12.597Z,1.57
2019-05-17T04:04:42.878Z,1.70
2019-05-17T04:07:12.957Z,1.73
2019-05-17T04:09:43.752Z,1.80
2019-05-17T04:12:13.858Z,1.80
2019-05-17T04:14:43.197Z,1.97
2019-05-17T04:17:13.272Z,2.00
2019-05-17T04:19:43.030Z,1.60
2019-05-17T04:22:13.914Z,1.90
2019-05-17T04:24:43.983Z,1.90
2019-05-17T04:27:13.867Z,1.80
2019-05-17T04:29:43.323Z,1.90
2019-05-17T04:32:13.140Z,1.70
2019-05-17T04:34:43.763Z,1.80
2019-05-17T04:37:13.247Z,1.70
2019-05-17T04:39:43.215Z,1.87
2019-05-17T04:42:13.642Z,1.70
2019-05-17T04:44:43.393Z,1.90
2019-05-17T04:47:13.451Z,1.60
2019-05-17T04:49:43.964Z,1.67
2019-05-17T04:52:13.903Z,1.70
2019-05-17T04:54:43.289Z,1.50
2019-05-17T04:57:13.289Z,1.77
2019-05-17T04:59:43.452Z,1.83
2019-05-17T05:02:13.413Z,1.90
2019-05-17T05:04:43.745Z,1.80
2019-05-17T05:07:13.896Z,2.13
2019-05-17T05:09:43.631Z,1.87
2019-05-17T05:12:13.005Z,1.73
2019-05-17T05:14:43.133Z,1.77
2019-05-17T05:17:13.011Z,1.90
2019-05-17T05:19:42.503Z,2.10
2019-05-17T05:22:13.484Z,1.80
2019-05-17T05:24:42.928Z,1.63
2019-05-17T05:27:12.307Z,1.83
2019-05-17T05:29:41.741Z,1.50
2019-05-17T05:32:11.796Z,2.00
2019-05-17T05:34:42.956Z,1.87
2019-05-17T05:37:12.709Z,2.07
2019-05-17T05:39:41.990Z,2.40
2019-05-17T05:42:13.828Z,2.00
2019-05-17T05:44:42.565Z,1.80
2019-05-17T05:47:11.852Z,1.70
2019-05-17T05:49:42.577Z,2.00
2019-05-17T05:52:12.630Z,1.70
2019-05-17T05:54:41.925Z,2.30
2019-05-17T05:57:12.652Z,2.00
2019-05-17T05:59:42.586Z,1.40
2019-05-17T06:02:12.380Z,2.20
2019-05-17T06:04:42.411Z,1.63
2019-05-17T06:07:12.902Z,2.13
2019-05-17T06:09:42.476Z,2.00
2019-05-17T06:12:23.413Z,2.20
2019-05-17T06:14:43.233Z,2.47
2019-05-17T06:17:12.724Z,2.20
2019-05-17T06:19:42.282Z,2.37
2019-05-17T06:22:12.126Z,2.67
2019-05-17T06:24:42.549Z,2.23
2019-05-17T06:27:12.430Z,2.30
2019-05-17T06:29:41.722Z,2.70
2019-05-17T06:32:11.910Z,2.33
2019-05-17T06:34:42.270Z,2.50
2019-05-17T06:37:12.920Z,2.60
2019-05-17T06:39:43.060Z,2.60
2019-05-17T06:42:12.697Z,2.43
2019-05-17T06:44:41.980Z,2.67
2019-05-17T06:47:12.020Z,2.60
2019-05-17T06:49:42.373Z,2.40
2019-05-17T06:52:12.031Z,2.20
2019-05-17T06:54:41.749Z,2.40
2019-05-17T06:57:12.784Z,2.20
2019-05-17T06:59:42.476Z,2.50
2019-05-17T07:02:11.978Z,2.10
2019-05-17T07:04:41.430Z,2.70
2019-05-17T07:07:30.397Z,2.40
2019-05-17T07:10:00.944Z,2.37
2019-05-17T07:12:30.885Z,2.63
2019-05-17T07:15:01.725Z,2.80
2019-05-17T07:17:31.608Z,2.60
2019-05-17T07:20:00.895Z,2.63
2019-05-17T07:22:30.229Z,3.07
2019-05-17T07:24:59.947Z,3.23
2019-05-17T07:27:41.121Z,3.50
2019-05-17T07:30:00.254Z,2.77
2019-05-17T07:32:29.871Z,3.00
2019-05-17T07:35:00.115Z,3.20
2019-05-17T07:37:30.281Z,2.90
2019-05-17T07:40:04.771Z,3.33
2019-05-17T07:42:31.105Z,3.40
2019-05-17T07:45:00.686Z,3.63
2019-05-17T07:47:30.424Z,4.33
2019-05-17T07:50:01.108Z,3.73
2019-05-17T07:52:30.628Z,4.03
2019-05-17T07:55:02.319Z,3.83
2019-05-17T07:57:31.204Z,4.03
2019-05-17T08:00:00.476Z,3.77
2019-05-17T08:02:30.740Z,3.90
2019-05-17T08:05:00.693Z,3.87
2019-05-17T08:07:30.299Z,3.63
2019-05-17T08:10:00.313Z,4.20
2019-05-17T08:12:30.405Z,4.30
2019-05-17T08:15:00.068Z,4.00
2019-05-17T08:17:30.388Z,4.20
2019-05-17T08:20:00.633Z,4.00
2019-05-17T08:22:30.198Z,3.97
2019-05-17T08:25:00.187Z,4.13
2019-05-17T08:27:29.916Z,4.27
2019-05-17T08:29:59.908Z,4.30
2019-05-17T08:32:31.597Z,4.53
2019-05-17T08:35:00.631Z,4.70
2019-05-17T08:37:30.424Z,4.30
2019-05-17T08:40:00.224Z,4.20
2019-05-17T08:42:30.089Z,4.77
2019-05-17T08:45:00.687Z,5.10
2019-05-17T08:47:30.264Z,4.43
2019-05-17T08:50:00.500Z,5.20
2019-05-17T08:52:30.080Z,5.53
2019-05-17T08:55:00.439Z,5.17
2019-05-17T08:57:30.347Z,5.27
2019-05-17T09:00:00.943Z,5.60
2019-05-17T09:02:30.497Z,5.10
2019-05-17T09:05:00.452Z,5.17
2019-05-17T09:07:30.345Z,4.93
2019-05-17T09:10:01.748Z,4.33
2019-05-17T09:12:31.099Z,5.40
2019-05-17T09:15:00.674Z,5.30
2019-05-17T09:17:30.122Z,5.43
2019-05-17T09:20:00.644Z,5.43
2019-05-17T09:22:30.620Z,5.53
2019-05-17T09:25:00.170Z,5.60
2019-05-17T09:27:30.059Z,5.80
2019-05-17T09:30:00.079Z,5.60
2019-05-17T09:32:29.843Z,6.20
2019-05-17T09:35:00.416Z,5.70
2019-05-17T09:37:30.506Z,5.77
2019-05-17T09:40:00.167Z,7.07
2019-05-17T09:42:30.058Z,5.83
2019-05-17T09:45:00.336Z,6.63
2019-05-17T09:47:30.179Z,6.20
2019-05-17T09:50:00.465Z,5.93
2019-05-17T09:52:29.975Z,5.67
2019-05-17T09:55:00.678Z,5.17
2019-05-17T09:57:29.990Z,5.60
2019-05-17T10:00:00.161Z,5.80
2019-05-17T10:02:29.892Z,6.33
2019-05-17T10:04:59.810Z,6.10
2019-05-17T10:07:29.843Z,5.80
2019-05-17T10:09:59.862Z,6.10
2019-05-17T10:12:29.226Z,6.87
2019-05-17T10:15:00.449Z,6.50
2019-05-17T10:17:29.681Z,7.17
2019-05-17T10:19:59.957Z,6.30
2019-05-17T10:22:30.350Z,6.90
2019-05-17T10:25:00.405Z,7.67
2019-05-17T10:27:30.227Z,7.30
2019-05-17T10:29:59.590Z,7.50
2019-05-17T10:32:30.902Z,7.00
2019-05-17T10:35:00.450Z,5.97
2019-05-17T10:37:30.401Z,6.60
2019-05-17T10:39:59.769Z,6.73
2019-05-17T10:42:30.593Z,6.73
2019-05-17T10:45:00.249Z,6.13
2019-05-17T10:47:30.224Z,6.70
2019-05-17T10:49:59.560Z,6.03
2019-05-17T10:52:30.019Z,6.57
2019-05-17T10:55:00.032Z,6.17
2019-05-17T10:57:30.335Z,6.27
2019-05-17T10:59:59.703Z,7.30
2019-05-17T11:02:30.438Z,6.47
2019-05-17T11:05:01.012Z,6.17
2019-05-17T11:07:30.304Z,6.43
2019-05-17T11:10:00.473Z,6.27
2019-05-17T11:12:30.376Z,6.67
2019-05-17T11:15:10.421Z,6.70
2019-05-17T11:17:31.200Z,6.30
2019-05-17T11:20:00.501Z,6.23
2019-05-17T11:22:29.753Z,5.17
2019-05-17T11:24:59.172Z,6.07
2019-05-17T11:27:28.482Z,6.17
2019-05-17T11:29:57.777Z,6.10
2019-05-17T11:32:27.208Z,6.07
2019-05-17T11:34:56.541Z,5.53
2019-05-17T11:37:25.861Z,5.50
2019-05-17T11:39:55.228Z,5.90
2019-05-17T11:42:24.530Z,4.93
2019-05-17T11:44:53.813Z,5.27
2019-05-17T11:47:23.300Z,5.10
2019-05-17T11:49:52.609Z,5.37
2019-05-17T11:52:21.895Z,4.90
2019-05-17T11:54:51.375Z,5.47
2019-05-17T11:57:20.739Z,5.43
2019-05-17T11:59:50.023Z,5.17
2019-05-17T12:02:21.451Z,4.50
2019-05-17T12:04:50.462Z,4.77
2019-05-17T12:07:20.217Z,5.67
2019-05-17T12:09:49.666Z,4.73
2019-05-17T12:12:18.972Z,5.10
2019-05-17T12:14:48.282Z,5.10
2019-05-17T12:17:17.643Z,5.40
2019-05-17T12:19:46.937Z,5.07
2019-05-17T12:22:16.309Z,5.30
2019-05-17T12:24:45.741Z,5.60
2019-05-17T12:27:15.136Z,5.63
2019-05-17T12:29:44.433Z,5.50
2019-05-17T12:32:16.782Z,5.20
2019-05-17T12:34:45.139Z,5.20
2019-05-17T12:37:14.425Z,4.93
2019-05-17T12:39:43.794Z,4.13
2019-05-17T12:42:13.332Z,4.20
2019-05-17T12:44:42.619Z,4.87
2019-05-17T12:47:11.968Z,4.97
2019-05-17T12:49:41.441Z,3.57
2019-05-17T12:52:10.724Z,4.23
2019-05-17T12:54:40.167Z,3.97
2019-05-17T12:57:09.851Z,4.00
2019-05-17T12:59:39.148Z,3.77
2019-05-17T13:02:12.089Z,3.70
2019-05-17T13:04:39.765Z,3.87
2019-05-17T13:07:09.074Z,4.97
2019-05-17T13:09:38.441Z,4.33
2019-05-17T13:12:07.930Z,3.70
2019-05-17T13:14:37.284Z,4.23
2019-05-17T13:17:06.709Z,4.80
2019-05-17T13:19:36.516Z,4.57
2019-05-17T13:22:06.074Z,4.43
2019-05-17T13:24:35.444Z,3.57
2019-05-17T13:27:05.126Z,4.03
2019-05-17T13:29:34.444Z,4.37
2019-05-17T13:32:03.789Z,4.33
2019-05-17T13:34:33.333Z,4.10
2019-05-17T13:37:02.627Z,4.47
2019-05-17T13:39:32.189Z,4.37
2019-05-17T13:42:01.691Z,3.77
2019-05-17T13:44:30.955Z,4.40
2019-05-17T13:47:00.313Z,4.20
2019-05-17T13:49:29.799Z,4.47
2019-05-17T13:51:59.078Z,4.87
2019-05-17T13:54:28.397Z,5.60
2019-05-17T13:56:58.000Z,5.30
2019-05-17T13:59:27.440Z,4.50
2019-05-17T14:01:56.923Z,4.93
2019-05-17T14:04:26.824Z,4.80
2019-05-17T14:06:56.348Z,5.40
2019-05-17T14:09:25.814Z,5.93
2019-05-17T14:11:55.236Z,6.33
2019-05-17T14:14:24.745Z,5.83
2019-05-17T14:16:54.434Z,5.93
2019-05-17T14:19:25.198Z,5.43
2019-05-17T14:21:54.560Z,5.53
2019-05-17T14:24:23.873Z,4.67
2019-05-17T14:26:53.286Z,6.20
2019-05-17T14:29:22.715Z,5.90
2019-05-17T14:31:52.086Z,6.23
2019-05-17T14:34:21.605Z,6.77
2019-05-17T14:36:50.956Z,6.50
2019-05-17T14:39:20.288Z,6.67
2019-05-17T14:41:50.025Z,6.80
2019-05-17T14:44:19.536Z,6.23
2019-05-17T14:46:48.938Z,5.47
2019-05-17T14:49:18.550Z,6.50
2019-05-17T14:51:48.013Z,7.20
2019-05-17T14:54:17.329Z,6.63
2019-05-17T14:56:46.994Z,6.40
2019-05-17T14:59:16.361Z,6.90
2019-05-17T15:01:45.710Z,6.80
2019-05-17T15:04:15.405Z,6.60
2019-05-17T15:06:44.729Z,6.93
2019-05-17T15:09:14.021Z,6.97
2019-05-17T15:11:43.378Z,7.10
2019-05-17T15:14:12.759Z,7.10
2019-05-17T15:16:42.088Z,5.90
2019-05-17T15:19:11.711Z,6.37
2019-05-17T15:21:41.336Z,6.00
2019-05-17T15:24:10.591Z,6.00
2019-05-17T15:26:40.306Z,6.47
2019-05-17T15:29:09.644Z,6.60
2019-05-17T15:31:38.911Z,6.67
2019-05-17T15:34:08.619Z,6.07
2019-05-17T15:36:37.994Z,5.87
2019-05-17T15:39:07.552Z,6.10
2019-05-17T15:41:37.054Z,5.70
2019-05-17T15:44:06.389Z,6.03
2019-05-17T15:46:35.629Z,6.53
2019-05-17T15:49:04.950Z,6.40
2019-05-17T15:51:34.400Z,6.10
2019-05-17T15:54:03.737Z,6.40
2019-05-17T15:56:33.293Z,6.60
2019-05-17T15:59:02.748Z,6.27
2019-05-17T16:01:32.088Z,6.60
2019-05-17T16:04:01.472Z,6.90
2019-05-17T16:06:30.838Z,7.03
2019-05-17T16:09:00.191Z,6.37
2019-05-17T16:11:29.631Z,6.20
2019-05-17T16:13:59.008Z,6.10
2019-05-17T16:16:28.260Z,6.63
2019-05-17T16:18:57.689Z,7.30
2019-05-17T16:21:26.978Z,6.60
2019-05-17T16:23:56.290Z,6.73
2019-05-17T16:26:26.229Z,6.30
2019-05-17T16:28:56.030Z,6.57
2019-05-17T16:31:25.360Z,7.10
2019-05-17T16:33:55.230Z,6.77
2019-05-17T16:36:24.770Z,6.77
2019-05-17T16:38:54.130Z,6.60
2019-05-17T16:41:23.978Z,6.67
2019-05-17T16:43:53.355Z,6.40
2019-05-17T16:46:22.665Z,6.30
2019-05-17T16:48:52.282Z,6.50
2019-05-17T16:51:21.762Z,6.40
2019-05-17T16:53:51.095Z,5.33
2019-05-17T16:56:20.352Z,6.50
2019-05-17T16:58:49.885Z,6.07
2019-05-17T17:01:19.146Z,6.47
2019-05-17T17:03:48.810Z,5.73
2019-05-17T17:06:18.251Z,6.53
2019-05-17T17:08:47.831Z,5.97
2019-05-17T17:11:17.330Z,5.33
2019-05-17T17:13:46.678Z,5.30
2019-05-17T17:16:15.955Z,6.30
2019-05-17T17:18:45.538Z,5.20
2019-05-17T17:21:14.941Z,5.70
2019-05-17T17:23:44.221Z,5.47
2019-05-17T17:26:13.487Z,5.70
2019-05-17T17:28:42.803Z,5.60
2019-05-17T17:31:16.272Z,5.53
2019-05-17T17:33:45.675Z,5.50
2019-05-17T17:36:15.345Z,5.87
2019-05-17T17:38:44.822Z,5.40
2019-05-17T17:41:14.180Z,5.70
2019-05-17T17:43:57.521Z,5.30
2019-05-17T17:46:14.643Z,5.30
2019-05-17T17:48:45.919Z,4.73
2019-05-17T17:51:15.237Z,4.90
2019-05-17T17:53:44.550Z,5.00
2019-05-17T17:56:13.865Z,5.23
2019-05-17T17:58:43.357Z,4.53
2019-05-17T18:01:12.722Z,4.90
2019-05-17T18:03:42.099Z,4.10
2019-05-17T18:06:11.787Z,4.63
2019-05-17T18:08:41.072Z,4.33
2019-05-17T18:11:10.343Z,5.03
2019-05-17T18:13:39.839Z,4.87
2019-05-17T18:16:09.156Z,4.60
2019-05-17T18:18:38.483Z,4.93
2019-05-17T18:21:08.105Z,5.07
2019-05-17T18:23:37.369Z,4.87
2019-05-17T18:26:06.817Z,4.67
2019-05-17T18:28:36.351Z,5.40
2019-05-17T18:31:05.773Z,5.20
2019-05-17T18:33:35.005Z,5.70
2019-05-17T18:36:04.478Z,5.83
2019-05-17T18:38:34.899Z,5.47
2019-05-17T18:41:04.292Z,5.80
2019-05-17T18:43:34.065Z,6.73
2019-05-17T18:46:03.414Z,6.73
2019-05-17T18:48:32.859Z,6.40
2019-05-17T18:51:02.291Z,6.63
2019-05-17T18:53:31.561Z,6.23
2019-05-17T18:56:00.858Z,6.07
2019-05-17T18:58:30.265Z,6.80
2019-05-17T19:00:59.895Z,7.10
2019-05-17T19:03:29.339Z,6.30
2019-05-17T19:08:27.579Z,6.87
2019-05-17T19:10:56.952Z,7.13
2019-05-17T19:13:26.447Z,6.90
2019-05-17T19:15:55.883Z,7.13
2019-05-17T19:18:25.168Z,6.97
2019-05-17T19:20:54.481Z,6.90
2019-05-17T19:23:25.878Z,7.53
2019-05-17T19:25:55.132Z,7.70
2019-05-17T19:28:24.516Z,8.30
2019-05-17T19:30:54.065Z,8.17
2019-05-17T19:33:23.365Z,8.43
2019-05-17T19:35:52.627Z,8.73
2019-05-17T19:38:22.138Z,7.40
2019-05-17T19:40:51.466Z,8.20
2019-05-17T19:43:20.820Z,8.10
2019-05-17T19:45:50.416Z,8.23
2019-05-17T19:48:20.007Z,9.57
2019-05-17T19:50:49.430Z,8.23
2019-05-17T19:53:19.145Z,8.10
2019-05-17T19:55:48.435Z,9.83
2019-05-17T19:58:17.699Z,11.27
2019-05-17T20:00:47.302Z,11.07
2019-05-17T20:03:16.635Z,10.07
2019-05-17T20:05:45.942Z,10.93
2019-05-17T20:08:15.546Z,11.03
2019-05-17T20:10:44.850Z,10.73
2019-05-17T20:13:14.224Z,10.73
2019-05-17T20:15:43.908Z,10.50
2019-05-17T20:18:13.264Z,9.73
2019-05-17T20:20:42.594Z,10.07
2019-05-17T20:23:12.326Z,9.70
2019-05-17T20:25:41.617Z,9.50
2019-05-17T20:28:10.928Z,8.53
2019-05-17T20:30:40.353Z,7.07
2019-05-17T20:33:09.612Z,7.33
2019-05-17T20:35:38.960Z,7.80
2019-05-17T20:38:08.638Z,7.50
2019-05-17T20:40:37.933Z,7.33
2019-05-17T20:43:07.272Z,7.97
2019-05-17T20:45:36.814Z,9.07
2019-05-17T20:48:06.069Z,10.17
2019-05-17T20:50:35.405Z,10.00
2019-05-17T20:53:17.959Z,9.53
2019-05-17T20:55:36.160Z,8.90
2019-05-17T20:58:05.747Z,9.70
2019-05-17T21:00:35.281Z,10.33
2019-05-17T21:03:04.644Z,10.43
2019-05-17T21:05:34.154Z,11.77
2019-05-17T21:08:03.701Z,10.80
2019-05-17T21:10:33.161Z,11.70
2019-05-17T21:13:02.479Z,12.57
2019-05-17T21:15:32.230Z,12.27
2019-05-17T21:18:01.573Z,13.50
2019-05-17T21:20:31.284Z,13.93
2019-05-17T21:23:00.886Z,14.40
2019-05-17T21:25:30.218Z,13.97
2019-05-17T21:27:59.572Z,14.83
2019-05-17T21:30:29.107Z,14.93
2019-05-17T21:32:58.380Z,14.30
2019-05-17T21:35:27.679Z,14.57
2019-05-17T21:37:57.316Z,13.90
2019-05-17T21:40:26.644Z,14.53
2019-05-17T21:42:56.004Z,15.67
2019-05-17T21:45:25.509Z,15.07
2019-05-17T21:47:54.786Z,14.27
2019-05-17T21:50:24.082Z,14.87
2019-05-17T21:52:53.676Z,15.13
2019-05-17T21:55:23.021Z,15.07
2019-05-17T21:57:52.326Z,15.70
2019-05-17T22:01:07.483Z,15.73
2019-05-17T22:03:36.762Z,15.30
2019-05-17T22:06:06.064Z,14.77
2019-05-17T22:08:35.771Z,15.20
2019-05-17T22:11:05.285Z,15.57
2019-05-17T22:13:34.592Z,16.10
2019-05-17T22:16:18.558Z,13.63
2019-05-17T22:18:35.361Z,15.50
2019-05-17T22:21:04.642Z,15.43
2019-05-17T22:23:34.003Z,15.20
2019-05-17T22:26:03.342Z,16.70
2019-05-17T22:28:32.604Z,16.23
2019-05-17T22:31:02.525Z,15.90
2019-05-17T22:33:31.844Z,16.57
2019-05-17T22:36:01.140Z,16.77
2019-05-17T22:38:30.523Z,18.23
2019-05-17T22:40:59.866Z,16.73
2019-05-17T22:43:29.162Z,16.27
2019-05-17T22:45:58.570Z,17.23
2019-05-17T22:48:27.882Z,16.70
2019-05-17T22:50:57.251Z,16.87
2019-05-17T22:53:26.816Z,15.83
2019-05-17T22:55:56.109Z,16.87
2019-05-17T22:58:25.419Z,17.10
2019-05-17T23:00:55.008Z,18.10
2019-05-17T23:03:24.315Z,17.60
2019-05-17T23:05:53.634Z,18.33
2019-05-17T23:08:23.135Z,17.90
2019-05-17T23:10:52.422Z,17.77
2019-05-17T23:13:21.769Z,18.33
2019-05-17T23:16:05.963Z,19.20
2019-05-17T23:18:35.491Z,18.40
2019-05-17T23:21:04.927Z,18.93
2019-05-17T23:23:34.428Z,18.13
2019-05-17T23:26:04.123Z,16.90
2019-05-17T23:28:33.625Z,18.23
2019-05-17T23:31:03.246Z,18.90
2019-05-17T23:33:32.565Z,20.03
2019-05-17T23:36:01.985Z,19.50
2019-05-17T23:38:31.512Z,20.10
2019-05-17T23:41:00.809Z,20.30
2019-05-17T23:43:30.160Z,20.07
2019-05-17T23:45:59.507Z,19.80
2019-05-17T23:48:28.788Z,20.50
2019-05-17T23:50:58.139Z,19.83
2019-05-17T23:53:27.682Z,19.93
2019-05-17T23:55:57.005Z,19.40
2019-05-17T23:58:26.271Z,19.63
